sensor_id;sensor_type;location;lat;lon;timestamp;P1;durP1;ratioP1;P2;durP2;ratioP2
15818;SDS011;8010;53.986;12.106;2022-12-07T00:02:01;5.07;;;2.83;;
15818;SDS011;8010;53.986;12.106;2022-12-07T00:04:26;6.90;;;3.10;;
15818;SDS011;8010;53.986;12.106;2022-12-07T00:06:52;6.07;;;3.83;;
15818;SDS011;8010;53.986;12.106;2022-12-07T00:09:18;5.47;;;3.40;;
15818;SDS011;8010;53.986;12.106;2022-12-07T00:11:44;8.47;;;3.73;;
15818;SDS011;8010;53.986;12.106;2022-12-07T00:14:15;6.67;;;3.93;;
15818;SDS011;8010;53.986;12.106;2022-12-07T00:16:41;6.33;;;3.90;;
15818;SDS011;8010;53.986;12.106;2022-12-07T00:19:07;4.93;;;3.30;;
15818;SDS011;8010;53.986;12.106;2022-12-07T00:21:35;5.70;;;3.30;;
15818;SDS011;8010;53.986;12.106;2022-12-07T00:24:01;6.83;;;3.40;;
15818;SDS011;8010;53.986;12.106;2022-12-07T00:26:29;5.47;;;3.10;;
15818;SDS011;8010;53.986;12.106;2022-12-07T00:28:57;5.40;;;3.40;;
15818;SDS011;8010;53.986;12.106;2022-12-07T00:31:25;4.23;;;2.97;;
15818;SDS011;8010;53.986;12.106;2022-12-07T00:33:52;5.07;;;3.30;;
15818;SDS011;8010;53.986;12.106;2022-12-07T00:36:19;9.07;;;3.67;;
15818;SDS011;8010;53.986;12.106;2022-12-07T00:38:46;6.20;;;3.57;;
15818;SDS011;8010;53.986;12.106;2022-12-07T00:41:13;5.13;;;3.53;;
15818;SDS011;8010;53.986;12.106;2022-12-07T00:43:40;5.40;;;2.93;;
15818;SDS011;8010;53.986;12.106;2022-12-07T00:46:07;5.73;;;3.40;;
15818;SDS011;8010;53.986;12.106;2022-12-07T00:48:34;5.30;;;3.13;;
15818;SDS011;8010;53.986;12.106;2022-12-07T00:50:59;5.87;;;3.43;;
15818;SDS011;8010;53.986;12.106;2022-12-07T00:53:26;5.13;;;3.30;;
15818;SDS011;8010;53.986;12.106;2022-12-07T00:55:51;6.13;;;3.40;;
15818;SDS011;8010;53.986;12.106;2022-12-07T00:58:17;4.97;;;3.23;;
15818;SDS011;8010;53.986;12.106;2022-12-07T01:00:43;5.77;;;3.63;;
15818;SDS011;8010;53.986;12.106;2022-12-07T01:03:10;7.57;;;4.10;;
15818;SDS011;8010;53.986;12.106;2022-12-07T01:05:37;5.67;;;3.50;;
15818;SDS011;8010;53.986;12.106;2022-12-07T01:08:02;6.10;;;3.73;;
15818;SDS011;8010;53.986;12.106;2022-12-07T01:10:29;5.30;;;3.50;;
15818;SDS011;8010;53.986;12.106;2022-12-07T01:12:55;6.83;;;3.90;;
15818;SDS011;8010;53.986;12.106;2022-12-07T01:15:21;7.07;;;3.30;;
15818;SDS011;8010;53.986;12.106;2022-12-07T01:17:47;5.67;;;3.30;;
15818;SDS011;8010;53.986;12.106;2022-12-07T01:20:13;6.37;;;3.80;;
15818;SDS011;8010;53.986;12.106;2022-12-07T01:22:40;6.80;;;3.93;;
15818;SDS011;8010;53.986;12.106;2022-12-07T01:25:07;6.07;;;4.10;;
15818;SDS011;8010;53.986;12.106;2022-12-07T01:27:34;6.70;;;4.27;;
15818;SDS011;8010;53.986;12.106;2022-12-07T01:30:01;7.50;;;4.13;;
15818;SDS011;8010;53.986;12.106;2022-12-07T01:32:28;6.17;;;3.80;;
15818;SDS011;8010;53.986;12.106;2022-12-07T01:34:54;7.57;;;4.13;;
15818;SDS011;8010;53.986;12.106;2022-12-07T01:37:19;6.73;;;3.90;;
15818;SDS011;8010;53.986;12.106;2022-12-07T01:39:48;6.93;;;4.20;;
15818;SDS011;8010;53.986;12.106;2022-12-07T01:42:14;7.77;;;4.27;;
15818;SDS011;8010;53.986;12.106;2022-12-07T01:47:42;6.60;;;3.93;;
15818;SDS011;8010;53.986;12.106;2022-12-07T01:50:11;7.47;;;3.80;;
15818;SDS011;8010;53.986;12.106;2022-12-07T01:52:37;6.60;;;3.60;;
15818;SDS011;8010;53.986;12.106;2022-12-07T01:55:07;6.67;;;4.17;;
15818;SDS011;8010;53.986;12.106;2022-12-07T01:57:37;6.70;;;3.67;;
15818;SDS011;8010;53.986;12.106;2022-12-07T02:00:06;7.57;;;4.23;;
15818;SDS011;8010;53.986;12.106;2022-12-07T02:02:34;4.70;;;3.33;;
15818;SDS011;8010;53.986;12.106;2022-12-07T02:05:03;7.90;;;4.30;;
15818;SDS011;8010;53.986;12.106;2022-12-07T02:07:30;7.80;;;4.37;;
15818;SDS011;8010;53.986;12.106;2022-12-07T02:09:57;7.00;;;4.23;;
15818;SDS011;8010;53.986;12.106;2022-12-07T02:12:49;6.20;;;3.50;;
15818;SDS011;8010;53.986;12.106;2022-12-07T02:15:19;7.20;;;4.50;;
15818;SDS011;8010;53.986;12.106;2022-12-07T02:20:57;7.33;;;3.87;;
15818;SDS011;8010;53.986;12.106;2022-12-07T02:27:06;7.77;;;4.93;;
15818;SDS011;8010;53.986;12.106;2022-12-07T02:29:35;7.03;;;4.10;;
15818;SDS011;8010;53.986;12.106;2022-12-07T02:32:23;8.63;;;4.73;;
15818;SDS011;8010;53.986;12.106;2022-12-07T02:34:57;7.97;;;4.53;;
15818;SDS011;8010;53.986;12.106;2022-12-07T02:40:22;8.60;;;4.87;;
15818;SDS011;8010;53.986;12.106;2022-12-07T02:43:08;7.00;;;4.70;;
15818;SDS011;8010;53.986;12.106;2022-12-07T02:45:40;9.17;;;4.40;;
15818;SDS011;8010;53.986;12.106;2022-12-07T02:48:07;7.90;;;4.47;;
15818;SDS011;8010;53.986;12.106;2022-12-07T02:50:35;7.23;;;3.80;;
15818;SDS011;8010;53.986;12.106;2022-12-07T02:53:00;8.37;;;4.60;;
15818;SDS011;8010;53.986;12.106;2022-12-07T02:55:30;8.53;;;4.67;;
15818;SDS011;8010;53.986;12.106;2022-12-07T02:58:23;10.07;;;5.00;;
15818;SDS011;8010;53.986;12.106;2022-12-07T03:03:57;11.77;;;5.37;;
15818;SDS011;8010;53.986;12.106;2022-12-07T03:06:56;12.70;;;5.57;;
15818;SDS011;8010;53.986;12.106;2022-12-07T03:12:09;9.63;;;5.40;;
15818;SDS011;8010;53.986;12.106;2022-12-07T03:14:43;12.63;;;5.77;;
15818;SDS011;8010;53.986;12.106;2022-12-07T03:17:16;10.13;;;5.73;;
15818;SDS011;8010;53.986;12.106;2022-12-07T03:19:46;8.10;;;4.63;;
15818;SDS011;8010;53.986;12.106;2022-12-07T03:22:14;11.27;;;6.10;;
15818;SDS011;8010;53.986;12.106;2022-12-07T03:24:48;10.77;;;5.40;;
15818;SDS011;8010;53.986;12.106;2022-12-07T03:27:20;11.10;;;5.27;;
15818;SDS011;8010;53.986;12.106;2022-12-07T03:29:48;9.80;;;5.57;;
15818;SDS011;8010;53.986;12.106;2022-12-07T03:32:33;12.33;;;6.17;;
15818;SDS011;8010;53.986;12.106;2022-12-07T03:35:29;10.03;;;5.67;;
15818;SDS011;8010;53.986;12.106;2022-12-07T03:40:50;16.53;;;6.27;;
15818;SDS011;8010;53.986;12.106;2022-12-07T03:43:40;11.10;;;5.67;;
15818;SDS011;8010;53.986;12.106;2022-12-07T03:46:11;12.40;;;6.17;;
15818;SDS011;8010;53.986;12.106;2022-12-07T03:48:41;14.77;;;6.77;;
15818;SDS011;8010;53.986;12.106;2022-12-07T03:53:46;16.83;;;6.27;;
15818;SDS011;8010;53.986;12.106;2022-12-07T03:56:18;15.40;;;6.07;;
15818;SDS011;8010;53.986;12.106;2022-12-07T03:58:44;10.57;;;5.70;;
15818;SDS011;8010;53.986;12.106;2022-12-07T04:01:10;11.23;;;5.50;;
15818;SDS011;8010;53.986;12.106;2022-12-07T04:03:36;11.90;;;5.63;;
15818;SDS011;8010;53.986;12.106;2022-12-07T04:06:02;11.50;;;5.27;;
15818;SDS011;8010;53.986;12.106;2022-12-07T04:08:28;15.43;;;5.80;;
15818;SDS011;8010;53.986;12.106;2022-12-07T04:10:53;9.13;;;4.97;;
15818;SDS011;8010;53.986;12.106;2022-12-07T04:13:19;11.33;;;5.87;;
15818;SDS011;8010;53.986;12.106;2022-12-07T04:15:44;11.87;;;5.70;;
15818;SDS011;8010;53.986;12.106;2022-12-07T04:18:10;12.63;;;6.00;;
15818;SDS011;8010;53.986;12.106;2022-12-07T04:20:35;11.03;;;6.03;;
15818;SDS011;8010;53.986;12.106;2022-12-07T04:23:01;13.10;;;5.97;;
15818;SDS011;8010;53.986;12.106;2022-12-07T04:25:26;10.23;;;5.60;;
15818;SDS011;8010;53.986;12.106;2022-12-07T04:27:52;10.37;;;5.83;;
15818;SDS011;8010;53.986;12.106;2022-12-07T04:30:18;11.67;;;5.90;;
15818;SDS011;8010;53.986;12.106;2022-12-07T04:32:44;11.30;;;5.63;;
15818;SDS011;8010;53.986;12.106;2022-12-07T04:35:09;13.23;;;6.07;;
15818;SDS011;8010;53.986;12.106;2022-12-07T04:37:35;11.13;;;5.53;;
15818;SDS011;8010;53.986;12.106;2022-12-07T04:40:03;12.90;;;6.13;;
15818;SDS011;8010;53.986;12.106;2022-12-07T04:42:30;12.57;;;6.17;;
15818;SDS011;8010;53.986;12.106;2022-12-07T04:44:56;14.20;;;7.40;;
15818;SDS011;8010;53.986;12.106;2022-12-07T04:47:21;13.13;;;6.80;;
15818;SDS011;8010;53.986;12.106;2022-12-07T04:49:47;12.03;;;6.50;;
15818;SDS011;8010;53.986;12.106;2022-12-07T04:52:12;9.97;;;6.00;;
15818;SDS011;8010;53.986;12.106;2022-12-07T04:54:38;10.73;;;6.23;;
15818;SDS011;8010;53.986;12.106;2022-12-07T04:57:03;12.20;;;5.93;;
15818;SDS011;8010;53.986;12.106;2022-12-07T04:59:29;13.80;;;6.57;;
15818;SDS011;8010;53.986;12.106;2022-12-07T05:01:54;12.07;;;6.50;;
15818;SDS011;8010;53.986;12.106;2022-12-07T05:04:20;10.60;;;6.13;;
15818;SDS011;8010;53.986;12.106;2022-12-07T05:06:45;11.47;;;6.63;;
15818;SDS011;8010;53.986;12.106;2022-12-07T05:09:11;12.20;;;7.07;;
15818;SDS011;8010;53.986;12.106;2022-12-07T05:11:36;12.07;;;6.50;;
15818;SDS011;8010;53.986;12.106;2022-12-07T05:16:32;10.63;;;5.50;;
15818;SDS011;8010;53.986;12.106;2022-12-07T05:18:58;10.80;;;6.17;;
15818;SDS011;8010;53.986;12.106;2022-12-07T05:21:23;11.37;;;6.17;;
15818;SDS011;8010;53.986;12.106;2022-12-07T05:23:49;14.20;;;6.53;;
15818;SDS011;8010;53.986;12.106;2022-12-07T05:26:15;9.80;;;5.73;;
15818;SDS011;8010;53.986;12.106;2022-12-07T05:28:40;11.57;;;6.43;;
15818;SDS011;8010;53.986;12.106;2022-12-07T05:31:06;10.67;;;6.20;;
15818;SDS011;8010;53.986;12.106;2022-12-07T05:33:31;10.33;;;6.07;;
15818;SDS011;8010;53.986;12.106;2022-12-07T05:35:57;10.37;;;5.53;;
15818;SDS011;8010;53.986;12.106;2022-12-07T05:38:23;12.43;;;6.53;;
15818;SDS011;8010;53.986;12.106;2022-12-07T05:40:49;10.53;;;6.20;;
15818;SDS011;8010;53.986;12.106;2022-12-07T05:43:15;9.63;;;5.50;;
15818;SDS011;8010;53.986;12.106;2022-12-07T05:45:41;9.53;;;5.70;;
15818;SDS011;8010;53.986;12.106;2022-12-07T05:48:06;9.83;;;5.63;;
15818;SDS011;8010;53.986;12.106;2022-12-07T05:50:32;11.17;;;6.67;;
15818;SDS011;8010;53.986;12.106;2022-12-07T05:52:57;12.97;;;7.03;;
15818;SDS011;8010;53.986;12.106;2022-12-07T05:55:23;11.40;;;6.40;;
15818;SDS011;8010;53.986;12.106;2022-12-07T05:57:49;12.60;;;7.10;;
15818;SDS011;8010;53.986;12.106;2022-12-07T06:00:33;11.83;;;5.77;;
15818;SDS011;8010;53.986;12.106;2022-12-07T06:02:59;11.30;;;6.13;;
15818;SDS011;8010;53.986;12.106;2022-12-07T06:05:24;10.57;;;5.90;;
15818;SDS011;8010;53.986;12.106;2022-12-07T06:07:50;11.93;;;6.03;;
15818;SDS011;8010;53.986;12.106;2022-12-07T06:10:16;11.43;;;5.90;;
15818;SDS011;8010;53.986;12.106;2022-12-07T06:12:41;10.43;;;5.90;;
15818;SDS011;8010;53.986;12.106;2022-12-07T06:15:08;12.20;;;6.27;;
15818;SDS011;8010;53.986;12.106;2022-12-07T06:17:35;10.27;;;5.53;;
15818;SDS011;8010;53.986;12.106;2022-12-07T06:20:01;10.27;;;5.83;;
15818;SDS011;8010;53.986;12.106;2022-12-07T06:22:27;11.23;;;6.30;;
15818;SDS011;8010;53.986;12.106;2022-12-07T06:24:53;10.33;;;5.70;;
15818;SDS011;8010;53.986;12.106;2022-12-07T06:27:18;9.53;;;5.47;;
15818;SDS011;8010;53.986;12.106;2022-12-07T06:29:44;11.27;;;5.53;;
15818;SDS011;8010;53.986;12.106;2022-12-07T06:32:10;10.47;;;6.37;;
15818;SDS011;8010;53.986;12.106;2022-12-07T06:34:36;14.63;;;6.67;;
15818;SDS011;8010;53.986;12.106;2022-12-07T06:37:01;11.63;;;6.27;;
15818;SDS011;8010;53.986;12.106;2022-12-07T06:39:27;13.73;;;6.47;;
15818;SDS011;8010;53.986;12.106;2022-12-07T06:41:54;12.27;;;6.67;;
15818;SDS011;8010;53.986;12.106;2022-12-07T06:44:20;11.03;;;6.33;;
15818;SDS011;8010;53.986;12.106;2022-12-07T06:46:46;10.20;;;5.70;;
15818;SDS011;8010;53.986;12.106;2022-12-07T06:49:13;11.47;;;6.20;;
15818;SDS011;8010;53.986;12.106;2022-12-07T06:51:38;10.23;;;6.00;;
15818;SDS011;8010;53.986;12.106;2022-12-07T06:54:10;12.33;;;5.60;;
15818;SDS011;8010;53.986;12.106;2022-12-07T06:56:37;8.43;;;4.60;;
15818;SDS011;8010;53.986;12.106;2022-12-07T06:59:03;8.10;;;4.73;;
15818;SDS011;8010;53.986;12.106;2022-12-07T07:01:31;9.23;;;4.93;;
15818;SDS011;8010;53.986;12.106;2022-12-07T07:03:58;6.67;;;4.43;;
15818;SDS011;8010;53.986;12.106;2022-12-07T07:06:23;7.37;;;4.57;;
15818;SDS011;8010;53.986;12.106;2022-12-07T07:08:49;8.70;;;4.27;;
15818;SDS011;8010;53.986;12.106;2022-12-07T07:11:15;5.60;;;3.50;;
15818;SDS011;8010;53.986;12.106;2022-12-07T07:13:40;6.13;;;3.17;;
15818;SDS011;8010;53.986;12.106;2022-12-07T07:16:06;5.83;;;3.20;;
15818;SDS011;8010;53.986;12.106;2022-12-07T07:18:32;6.77;;;3.13;;
15818;SDS011;8010;53.986;12.106;2022-12-07T07:20:58;4.90;;;3.00;;
15818;SDS011;8010;53.986;12.106;2022-12-07T07:23:24;4.50;;;2.97;;
15818;SDS011;8010;53.986;12.106;2022-12-07T07:25:49;5.30;;;3.03;;
15818;SDS011;8010;53.986;12.106;2022-12-07T07:28:15;4.63;;;2.90;;
15818;SDS011;8010;53.986;12.106;2022-12-07T07:30:41;6.07;;;3.30;;
15818;SDS011;8010;53.986;12.106;2022-12-07T07:33:07;5.10;;;3.40;;
15818;SDS011;8010;53.986;12.106;2022-12-07T07:35:34;6.87;;;3.40;;
15818;SDS011;8010;53.986;12.106;2022-12-07T07:38:00;5.80;;;3.20;;
15818;SDS011;8010;53.986;12.106;2022-12-07T07:40:26;5.73;;;3.60;;
15818;SDS011;8010;53.986;12.106;2022-12-07T07:42:53;7.57;;;3.57;;
15818;SDS011;8010;53.986;12.106;2022-12-07T07:45:19;5.60;;;3.50;;
15818;SDS011;8010;53.986;12.106;2022-12-07T07:47:46;6.00;;;3.60;;
15818;SDS011;8010;53.986;12.106;2022-12-07T07:50:12;5.43;;;3.40;;
15818;SDS011;8010;53.986;12.106;2022-12-07T07:52:38;4.93;;;2.83;;
15818;SDS011;8010;53.986;12.106;2022-12-07T07:55:04;5.23;;;3.00;;
15818;SDS011;8010;53.986;12.106;2022-12-07T07:57:30;5.30;;;3.30;;
15818;SDS011;8010;53.986;12.106;2022-12-07T07:59:56;4.83;;;3.23;;
15818;SDS011;8010;53.986;12.106;2022-12-07T08:02:21;5.33;;;3.17;;
15818;SDS011;8010;53.986;12.106;2022-12-07T08:04:47;5.90;;;3.50;;
15818;SDS011;8010;53.986;12.106;2022-12-07T08:07:13;9.27;;;3.33;;
15818;SDS011;8010;53.986;12.106;2022-12-07T08:09:39;5.43;;;3.00;;
15818;SDS011;8010;53.986;12.106;2022-12-07T08:12:05;5.53;;;2.93;;
15818;SDS011;8010;53.986;12.106;2022-12-07T08:14:31;4.17;;;2.90;;
15818;SDS011;8010;53.986;12.106;2022-12-07T08:16:56;5.20;;;3.43;;
15818;SDS011;8010;53.986;12.106;2022-12-07T08:19:22;8.63;;;3.43;;
15818;SDS011;8010;53.986;12.106;2022-12-07T08:21:48;4.90;;;3.00;;
15818;SDS011;8010;53.986;12.106;2022-12-07T08:24:14;3.83;;;2.67;;
15818;SDS011;8010;53.986;12.106;2022-12-07T08:26:40;5.07;;;3.03;;
15818;SDS011;8010;53.986;12.106;2022-12-07T08:29:06;4.70;;;3.00;;
15818;SDS011;8010;53.986;12.106;2022-12-07T08:31:31;5.67;;;2.93;;
15818;SDS011;8010;53.986;12.106;2022-12-07T08:33:57;4.77;;;2.63;;
15818;SDS011;8010;53.986;12.106;2022-12-07T08:36:23;4.80;;;2.43;;
15818;SDS011;8010;53.986;12.106;2022-12-07T08:38:49;4.23;;;2.80;;
15818;SDS011;8010;53.986;12.106;2022-12-07T08:41:15;4.40;;;2.97;;
15818;SDS011;8010;53.986;12.106;2022-12-07T08:43:40;3.53;;;2.43;;
15818;SDS011;8010;53.986;12.106;2022-12-07T08:46:09;3.93;;;2.30;;
15818;SDS011;8010;53.986;12.106;2022-12-07T08:48:48;4.67;;;2.63;;
15818;SDS011;8010;53.986;12.106;2022-12-07T08:51:17;3.10;;;1.97;;
15818;SDS011;8010;53.986;12.106;2022-12-07T08:53:44;4.20;;;2.70;;
15818;SDS011;8010;53.986;12.106;2022-12-07T08:56:10;5.70;;;3.10;;
15818;SDS011;8010;53.986;12.106;2022-12-07T08:58:36;5.83;;;2.77;;
15818;SDS011;8010;53.986;12.106;2022-12-07T09:01:03;4.80;;;3.30;;
15818;SDS011;8010;53.986;12.106;2022-12-07T09:03:29;5.53;;;3.37;;
15818;SDS011;8010;53.986;12.106;2022-12-07T09:05:55;6.77;;;3.70;;
15818;SDS011;8010;53.986;12.106;2022-12-07T09:08:22;6.60;;;3.53;;
15818;SDS011;8010;53.986;12.106;2022-12-07T09:10:51;5.00;;;3.63;;
15818;SDS011;8010;53.986;12.106;2022-12-07T09:13:17;7.33;;;4.30;;
15818;SDS011;8010;53.986;12.106;2022-12-07T09:15:42;7.70;;;3.80;;
15818;SDS011;8010;53.986;12.106;2022-12-07T09:18:08;5.33;;;3.50;;
15818;SDS011;8010;53.986;12.106;2022-12-07T09:20:33;4.17;;;2.73;;
15818;SDS011;8010;53.986;12.106;2022-12-07T09:22:59;5.07;;;3.63;;
15818;SDS011;8010;53.986;12.106;2022-12-07T09:25:24;8.03;;;4.40;;
15818;SDS011;8010;53.986;12.106;2022-12-07T09:27:56;5.00;;;3.53;;
15818;SDS011;8010;53.986;12.106;2022-12-07T09:30:22;8.30;;;3.83;;
15818;SDS011;8010;53.986;12.106;2022-12-07T09:32:48;9.23;;;3.60;;
15818;SDS011;8010;53.986;12.106;2022-12-07T09:35:14;10.70;;;3.80;;
15818;SDS011;8010;53.986;12.106;2022-12-07T09:37:39;9.07;;;3.47;;
15818;SDS011;8010;53.986;12.106;2022-12-07T09:40:05;7.43;;;4.40;;
15818;SDS011;8010;53.986;12.106;2022-12-07T09:45:11;8.67;;;3.83;;
15818;SDS011;8010;53.986;12.106;2022-12-07T09:47:40;7.10;;;4.23;;
15818;SDS011;8010;53.986;12.106;2022-12-07T09:50:10;9.33;;;4.73;;
15818;SDS011;8010;53.986;12.106;2022-12-07T09:52:38;8.23;;;4.50;;
15818;SDS011;8010;53.986;12.106;2022-12-07T09:55:12;6.27;;;4.40;;
15818;SDS011;8010;53.986;12.106;2022-12-07T09:57:40;7.67;;;4.57;;
15818;SDS011;8010;53.986;12.106;2022-12-07T10:00:16;7.07;;;4.23;;
15818;SDS011;8010;53.986;12.106;2022-12-07T10:02:46;6.17;;;3.67;;
15818;SDS011;8010;53.986;12.106;2022-12-07T10:05:24;7.13;;;3.70;;
15818;SDS011;8010;53.986;12.106;2022-12-07T10:07:51;7.20;;;4.10;;
15818;SDS011;8010;53.986;12.106;2022-12-07T10:13:10;5.57;;;3.13;;
15818;SDS011;8010;53.986;12.106;2022-12-07T10:18:28;6.77;;;3.17;;
15818;SDS011;8010;53.986;12.106;2022-12-07T10:23:34;11.77;;;3.60;;
15818;SDS011;8010;53.986;12.106;2022-12-07T10:26:18;6.87;;;3.37;;
15818;SDS011;8010;53.986;12.106;2022-12-07T10:28:47;6.23;;;3.23;;
15818;SDS011;8010;53.986;12.106;2022-12-07T10:31:17;6.37;;;3.57;;
15818;SDS011;8010;53.986;12.106;2022-12-07T10:33:49;5.50;;;3.40;;
15818;SDS011;8010;53.986;12.106;2022-12-07T10:36:18;5.33;;;2.70;;
15818;SDS011;8010;53.986;12.106;2022-12-07T10:38:48;4.67;;;2.97;;
15818;SDS011;8010;53.986;12.106;2022-12-07T10:41:16;6.00;;;3.90;;
15818;SDS011;8010;53.986;12.106;2022-12-07T10:43:49;6.87;;;2.97;;
15818;SDS011;8010;53.986;12.106;2022-12-07T10:52:02;4.47;;;2.67;;
15818;SDS011;8010;53.986;12.106;2022-12-07T10:57:45;5.33;;;2.30;;
15818;SDS011;8010;53.986;12.106;2022-12-07T11:00:22;6.60;;;2.93;;
15818;SDS011;8010;53.986;12.106;2022-12-07T11:05:45;4.63;;;2.20;;
15818;SDS011;8010;53.986;12.106;2022-12-07T11:08:43;5.77;;;2.20;;
15818;SDS011;8010;53.986;12.106;2022-12-07T11:11:46;2.73;;;1.83;;
15818;SDS011;8010;53.986;12.106;2022-12-07T11:14:26;1.70;;;1.10;;
15818;SDS011;8010;53.986;12.106;2022-12-07T11:17:03;3.63;;;1.63;;
15818;SDS011;8010;53.986;12.106;2022-12-07T11:25:13;2.27;;;1.10;;
15818;SDS011;8010;53.986;12.106;2022-12-07T11:27:45;3.57;;;1.47;;
15818;SDS011;8010;53.986;12.106;2022-12-07T11:36:40;2.77;;;0.60;;
15818;SDS011;8010;53.986;12.106;2022-12-07T11:39:16;3.40;;;0.70;;
15818;SDS011;8010;53.986;12.106;2022-12-07T11:41:46;2.10;;;0.50;;
15818;SDS011;8010;53.986;12.106;2022-12-07T11:44:20;2.00;;;0.47;;
15818;SDS011;8010;53.986;12.106;2022-12-07T11:46:59;0.50;;;0.37;;
15818;SDS011;8010;53.986;12.106;2022-12-07T11:49:40;0.43;;;0.30;;
15818;SDS011;8010;53.986;12.106;2022-12-07T11:52:13;2.90;;;0.80;;
15818;SDS011;8010;53.986;12.106;2022-12-07T11:54:47;3.77;;;0.70;;
15818;SDS011;8010;53.986;12.106;2022-12-07T11:57:19;0.63;;;0.30;;
15818;SDS011;8010;53.986;12.106;2022-12-07T11:59:52;0.87;;;0.37;;
15818;SDS011;8010;53.986;12.106;2022-12-07T12:02:43;2.40;;;0.60;;
15818;SDS011;8010;53.986;12.106;2022-12-07T12:05:17;2.10;;;0.50;;
15818;SDS011;8010;53.986;12.106;2022-12-07T12:07:46;3.13;;;0.40;;
15818;SDS011;8010;53.986;12.106;2022-12-07T12:10:24;4.53;;;0.80;;
15818;SDS011;8010;53.986;12.106;2022-12-07T12:13:07;0.97;;;0.70;;
15818;SDS011;8010;53.986;12.106;2022-12-07T12:15:51;1.43;;;0.77;;
15818;SDS011;8010;53.986;12.106;2022-12-07T12:18:40;3.37;;;0.70;;
15818;SDS011;8010;53.986;12.106;2022-12-07T12:21:19;1.67;;;0.80;;
15818;SDS011;8010;53.986;12.106;2022-12-07T12:23:54;1.33;;;0.67;;
15818;SDS011;8010;53.986;12.106;2022-12-07T12:26:25;4.73;;;0.80;;
15818;SDS011;8010;53.986;12.106;2022-12-07T12:28:57;1.57;;;0.77;;
15818;SDS011;8010;53.986;12.106;2022-12-07T12:31:38;2.80;;;0.73;;
15818;SDS011;8010;53.986;12.106;2022-12-07T12:37:38;2.83;;;0.60;;
15818;SDS011;8010;53.986;12.106;2022-12-07T12:42:56;2.20;;;0.70;;
15818;SDS011;8010;53.986;12.106;2022-12-07T12:45:26;4.90;;;0.87;;
15818;SDS011;8010;53.986;12.106;2022-12-07T12:50:26;1.77;;;0.60;;
15818;SDS011;8010;53.986;12.106;2022-12-07T12:52:58;1.77;;;0.60;;
15818;SDS011;8010;53.986;12.106;2022-12-07T13:00:43;2.70;;;0.60;;
15818;SDS011;8010;53.986;12.106;2022-12-07T13:03:29;2.30;;;0.70;;
15818;SDS011;8010;53.986;12.106;2022-12-07T13:08:49;1.07;;;0.63;;
15818;SDS011;8010;53.986;12.106;2022-12-07T13:11:18;4.57;;;0.60;;
15818;SDS011;8010;53.986;12.106;2022-12-07T13:13:57;3.80;;;0.53;;
15818;SDS011;8010;53.986;12.106;2022-12-07T13:16:57;3.07;;;0.60;;
15818;SDS011;8010;53.986;12.106;2022-12-07T13:27:47;1.00;;;0.60;;
15818;SDS011;8010;53.986;12.106;2022-12-07T13:30:20;2.87;;;0.60;;
15818;SDS011;8010;53.986;12.106;2022-12-07T13:32:53;6.40;;;0.50;;
15818;SDS011;8010;53.986;12.106;2022-12-07T13:38:23;7.93;;;1.00;;
15818;SDS011;8010;53.986;12.106;2022-12-07T13:41:03;1.70;;;0.53;;
15818;SDS011;8010;53.986;12.106;2022-12-07T13:43:44;0.80;;;0.50;;
15818;SDS011;8010;53.986;12.106;2022-12-07T13:46:35;3.07;;;0.80;;
15818;SDS011;8010;53.986;12.106;2022-12-07T13:49:24;1.63;;;0.47;;
15818;SDS011;8010;53.986;12.106;2022-12-07T13:51:52;1.83;;;0.70;;
15818;SDS011;8010;53.986;12.106;2022-12-07T13:54:18;3.27;;;0.57;;
15818;SDS011;8010;53.986;12.106;2022-12-07T13:56:47;1.77;;;0.60;;
15818;SDS011;8010;53.986;12.106;2022-12-07T13:59:17;1.30;;;0.70;;
15818;SDS011;8010;53.986;12.106;2022-12-07T14:01:47;1.27;;;0.50;;
15818;SDS011;8010;53.986;12.106;2022-12-07T14:04:18;0.83;;;0.50;;
15818;SDS011;8010;53.986;12.106;2022-12-07T14:06:56;0.70;;;0.47;;
15818;SDS011;8010;53.986;12.106;2022-12-07T14:09:23;0.60;;;0.30;;
15818;SDS011;8010;53.986;12.106;2022-12-07T14:11:52;2.57;;;0.73;;
15818;SDS011;8010;53.986;12.106;2022-12-07T14:14:26;0.70;;;0.50;;
15818;SDS011;8010;53.986;12.106;2022-12-07T14:17:17;0.50;;;0.27;;
15818;SDS011;8010;53.986;12.106;2022-12-07T14:19:43;1.40;;;0.63;;
15818;SDS011;8010;53.986;12.106;2022-12-07T14:22:34;0.93;;;0.33;;
15818;SDS011;8010;53.986;12.106;2022-12-07T14:25:22;0.97;;;0.40;;
15818;SDS011;8010;53.986;12.106;2022-12-07T14:27:49;1.60;;;0.50;;
15818;SDS011;8010;53.986;12.106;2022-12-07T14:30:23;0.50;;;0.40;;
15818;SDS011;8010;53.986;12.106;2022-12-07T14:32:58;0.57;;;0.20;;
15818;SDS011;8010;53.986;12.106;2022-12-07T14:35:26;0.33;;;0.30;;
15818;SDS011;8010;53.986;12.106;2022-12-07T14:37:52;1.47;;;0.40;;
15818;SDS011;8010;53.986;12.106;2022-12-07T14:40:19;0.80;;;0.40;;
15818;SDS011;8010;53.986;12.106;2022-12-07T14:42:47;1.40;;;0.57;;
15818;SDS011;8010;53.986;12.106;2022-12-07T14:45:18;0.60;;;0.50;;
15818;SDS011;8010;53.986;12.106;2022-12-07T14:47:46;0.57;;;0.40;;
15818;SDS011;8010;53.986;12.106;2022-12-07T14:50:13;0.93;;;0.30;;
15818;SDS011;8010;53.986;12.106;2022-12-07T14:52:41;1.53;;;0.60;;
15818;SDS011;8010;53.986;12.106;2022-12-07T14:55:18;2.10;;;0.80;;
15818;SDS011;8010;53.986;12.106;2022-12-07T14:57:48;0.80;;;0.47;;
15818;SDS011;8010;53.986;12.106;2022-12-07T15:00:15;4.13;;;0.40;;
15818;SDS011;8010;53.986;12.106;2022-12-07T15:02:42;0.40;;;0.30;;
15818;SDS011;8010;53.986;12.106;2022-12-07T15:05:08;0.70;;;0.40;;
15818;SDS011;8010;53.986;12.106;2022-12-07T15:07:34;0.90;;;0.53;;
15818;SDS011;8010;53.986;12.106;2022-12-07T15:10:00;1.33;;;0.37;;
15818;SDS011;8010;53.986;12.106;2022-12-07T15:12:26;0.30;;;0.20;;
15818;SDS011;8010;53.986;12.106;2022-12-07T15:14:52;0.90;;;0.57;;
15818;SDS011;8010;53.986;12.106;2022-12-07T15:17:17;1.27;;;0.70;;
15818;SDS011;8010;53.986;12.106;2022-12-07T15:19:43;1.03;;;0.20;;
15818;SDS011;8010;53.986;12.106;2022-12-07T15:22:08;2.37;;;0.37;;
15818;SDS011;8010;53.986;12.106;2022-12-07T15:24:35;0.83;;;0.30;;
15818;SDS011;8010;53.986;12.106;2022-12-07T15:27:02;0.73;;;0.20;;
15818;SDS011;8010;53.986;12.106;2022-12-07T15:29:28;0.67;;;0.43;;
15818;SDS011;8010;53.986;12.106;2022-12-07T15:31:54;0.80;;;0.40;;
15818;SDS011;8010;53.986;12.106;2022-12-07T15:34:20;3.87;;;0.30;;
15818;SDS011;8010;53.986;12.106;2022-12-07T15:36:46;1.67;;;0.40;;
15818;SDS011;8010;53.986;12.106;2022-12-07T15:39:11;1.30;;;0.40;;
15818;SDS011;8010;53.986;12.106;2022-12-07T15:41:37;0.60;;;0.30;;
15818;SDS011;8010;53.986;12.106;2022-12-07T15:44:03;0.77;;;0.50;;
15818;SDS011;8010;53.986;12.106;2022-12-07T15:46:47;0.60;;;0.30;;
15818;SDS011;8010;53.986;12.106;2022-12-07T15:49:13;3.13;;;0.33;;
15818;SDS011;8010;53.986;12.106;2022-12-07T15:51:42;2.17;;;0.60;;
15818;SDS011;8010;53.986;12.106;2022-12-07T15:54:22;0.30;;;0.20;;
15818;SDS011;8010;53.986;12.106;2022-12-07T15:56:49;0.57;;;0.40;;
15818;SDS011;8010;53.986;12.106;2022-12-07T15:59:15;0.30;;;0.30;;
15818;SDS011;8010;53.986;12.106;2022-12-07T16:01:41;2.03;;;0.50;;
15818;SDS011;8010;53.986;12.106;2022-12-07T16:04:06;0.73;;;0.40;;
15818;SDS011;8010;53.986;12.106;2022-12-07T16:06:32;0.73;;;0.27;;
15818;SDS011;8010;53.986;12.106;2022-12-07T16:08:57;0.40;;;0.30;;
15818;SDS011;8010;53.986;12.106;2022-12-07T16:11:23;0.80;;;0.60;;
15818;SDS011;8010;53.986;12.106;2022-12-07T16:13:49;1.57;;;0.60;;
15818;SDS011;8010;53.986;12.106;2022-12-07T16:16:15;0.70;;;0.50;;
15818;SDS011;8010;53.986;12.106;2022-12-07T16:18:43;1.60;;;0.73;;
15818;SDS011;8010;53.986;12.106;2022-12-07T16:21:09;1.10;;;0.60;;
15818;SDS011;8010;53.986;12.106;2022-12-07T16:23:35;0.97;;;0.60;;
15818;SDS011;8010;53.986;12.106;2022-12-07T16:26:05;0.87;;;0.43;;
15818;SDS011;8010;53.986;12.106;2022-12-07T16:28:31;1.93;;;0.40;;